sensor_id;sensor_type;location;lat;lon;timestamp;P1;durP1;ratioP1;P2;durP2;ratioP2
14294;SDS011;7231;59.370;18.016;2022-12-07T00:01:16;5.93;;;2.67;;
14294;SDS011;7231;59.370;18.016;2022-12-07T00:03:46;7.20;;;2.87;;
14294;SDS011;7231;59.370;18.016;2022-12-07T00:06:17;7.77;;;2.63;;
14294;SDS011;7231;59.370;18.016;2022-12-07T00:08:47;7.50;;;3.03;;
14294;SDS011;7231;59.370;18.016;2022-12-07T00:11:15;5.83;;;3.13;;
14294;SDS011;7231;59.370;18.016;2022-12-07T00:13:45;6.27;;;3.07;;
14294;SDS011;7231;59.370;18.016;2022-12-07T00:16:14;7.47;;;2.87;;
14294;SDS011;7231;59.370;18.016;2022-12-07T00:18:44;5.80;;;2.97;;
14294;SDS011;7231;59.370;18.016;2022-12-07T00:21:13;7.03;;;2.87;;
14294;SDS011;7231;59.370;18.016;2022-12-07T00:23:44;5.80;;;2.60;;
14294;SDS011;7231;59.370;18.016;2022-12-07T00:26:14;8.60;;;2.80;;
14294;SDS011;7231;59.370;18.016;2022-12-07T00:28:44;7.97;;;2.70;;
14294;SDS011;7231;59.370;18.016;2022-12-07T00:31:15;6.03;;;2.77;;
14294;SDS011;7231;59.370;18.016;2022-12-07T00:33:44;5.37;;;2.40;;
14294;SDS011;7231;59.370;18.016;2022-12-07T00:36:13;6.33;;;2.63;;
14294;SDS011;7231;59.370;18.016;2022-12-07T00:38:51;8.10;;;2.47;;
14294;SDS011;7231;59.370;18.016;2022-12-07T00:41:20;8.53;;;2.80;;
14294;SDS011;7231;59.370;18.016;2022-12-07T00:43:49;6.27;;;2.37;;
14294;SDS011;7231;59.370;18.016;2022-12-07T00:46:18;8.83;;;2.53;;
14294;SDS011;7231;59.370;18.016;2022-12-07T00:48:47;9.07;;;2.47;;
14294;SDS011;7231;59.370;18.016;2022-12-07T00:51:16;7.80;;;3.00;;
14294;SDS011;7231;59.370;18.016;2022-12-07T00:53:45;5.63;;;2.67;;
14294;SDS011;7231;59.370;18.016;2022-12-07T00:56:17;6.27;;;2.50;;
14294;SDS011;7231;59.370;18.016;2022-12-07T00:58:49;8.77;;;3.07;;
14294;SDS011;7231;59.370;18.016;2022-12-07T01:01:18;6.17;;;2.60;;
14294;SDS011;7231;59.370;18.016;2022-12-07T01:03:46;3.43;;;2.17;;
14294;SDS011;7231;59.370;18.016;2022-12-07T01:06:15;5.47;;;2.30;;
14294;SDS011;7231;59.370;18.016;2022-12-07T01:08:44;5.20;;;2.50;;
14294;SDS011;7231;59.370;18.016;2022-12-07T01:11:12;5.90;;;2.80;;
14294;SDS011;7231;59.370;18.016;2022-12-07T01:13:43;8.20;;;2.60;;
14294;SDS011;7231;59.370;18.016;2022-12-07T01:16:12;4.00;;;2.30;;
14294;SDS011;7231;59.370;18.016;2022-12-07T01:18:42;4.90;;;1.90;;
14294;SDS011;7231;59.370;18.016;2022-12-07T01:21:14;5.83;;;2.50;;
14294;SDS011;7231;59.370;18.016;2022-12-07T01:23:44;5.47;;;2.33;;
14294;SDS011;7231;59.370;18.016;2022-12-07T01:26:13;7.40;;;2.40;;
14294;SDS011;7231;59.370;18.016;2022-12-07T01:28:45;5.00;;;2.63;;
14294;SDS011;7231;59.370;18.016;2022-12-07T01:31:14;4.23;;;2.30;;
14294;SDS011;7231;59.370;18.016;2022-12-07T01:33:46;5.40;;;2.40;;
14294;SDS011;7231;59.370;18.016;2022-12-07T01:36:17;8.47;;;2.40;;
14294;SDS011;7231;59.370;18.016;2022-12-07T01:38:47;6.87;;;2.30;;
14294;SDS011;7231;59.370;18.016;2022-12-07T01:41:19;8.07;;;2.57;;
14294;SDS011;7231;59.370;18.016;2022-12-07T01:46:36;11.40;;;2.03;;
14294;SDS011;7231;59.370;18.016;2022-12-07T01:49:04;3.77;;;2.37;;
14294;SDS011;7231;59.370;18.016;2022-12-07T01:51:36;5.13;;;2.30;;
14294;SDS011;7231;59.370;18.016;2022-12-07T01:54:06;6.03;;;2.10;;
14294;SDS011;7231;59.370;18.016;2022-12-07T01:56:36;3.37;;;2.07;;
14294;SDS011;7231;59.370;18.016;2022-12-07T01:59:06;5.30;;;2.13;;
14294;SDS011;7231;59.370;18.016;2022-12-07T02:01:35;6.63;;;2.30;;
14294;SDS011;7231;59.370;18.016;2022-12-07T02:04:03;5.17;;;2.20;;
14294;SDS011;7231;59.370;18.016;2022-12-07T02:06:31;7.30;;;2.40;;
14294;SDS011;7231;59.370;18.016;2022-12-07T02:09:00;5.93;;;2.37;;
14294;SDS011;7231;59.370;18.016;2022-12-07T02:11:28;4.73;;;2.30;;
14294;SDS011;7231;59.370;18.016;2022-12-07T02:13:57;4.43;;;2.27;;
14294;SDS011;7231;59.370;18.016;2022-12-07T02:16:27;6.53;;;2.30;;
14294;SDS011;7231;59.370;18.016;2022-12-07T02:19:29;6.43;;;2.37;;
14294;SDS011;7231;59.370;18.016;2022-12-07T02:22:35;7.00;;;2.47;;
14294;SDS011;7231;59.370;18.016;2022-12-07T02:25:38;4.43;;;2.20;;
14294;SDS011;7231;59.370;18.016;2022-12-07T02:28:21;6.67;;;2.33;;
14294;SDS011;7231;59.370;18.016;2022-12-07T02:31:01;4.73;;;2.07;;
14294;SDS011;7231;59.370;18.016;2022-12-07T02:33:33;4.10;;;2.27;;
14294;SDS011;7231;59.370;18.016;2022-12-07T02:36:04;8.67;;;2.20;;
14294;SDS011;7231;59.370;18.016;2022-12-07T02:38:37;5.27;;;2.30;;
14294;SDS011;7231;59.370;18.016;2022-12-07T02:41:11;3.37;;;2.23;;
14294;SDS011;7231;59.370;18.016;2022-12-07T02:43:43;5.90;;;2.20;;
14294;SDS011;7231;59.370;18.016;2022-12-07T02:46:17;5.80;;;2.17;;
14294;SDS011;7231;59.370;18.016;2022-12-07T02:48:49;6.07;;;2.20;;
14294;SDS011;7231;59.370;18.016;2022-12-07T02:51:19;4.77;;;2.30;;
14294;SDS011;7231;59.370;18.016;2022-12-07T02:53:48;4.63;;;2.20;;
14294;SDS011;7231;59.370;18.016;2022-12-07T02:56:18;9.27;;;3.43;;
14294;SDS011;7231;59.370;18.016;2022-12-07T02:58:55;6.17;;;2.10;;
14294;SDS011;7231;59.370;18.016;2022-12-07T03:01:37;5.53;;;2.33;;
14294;SDS011;7231;59.370;18.016;2022-12-07T03:04:17;6.20;;;1.97;;
14294;SDS011;7231;59.370;18.016;2022-12-07T03:07:00;10.10;;;2.63;;
14294;SDS011;7231;59.370;18.016;2022-12-07T03:09:32;8.40;;;2.50;;
14294;SDS011;7231;59.370;18.016;2022-12-07T03:12:06;8.27;;;2.30;;
14294;SDS011;7231;59.370;18.016;2022-12-07T03:14:41;5.03;;;2.23;;
14294;SDS011;7231;59.370;18.016;2022-12-07T03:17:19;7.97;;;2.30;;
14294;SDS011;7231;59.370;18.016;2022-12-07T03:19:53;3.87;;;2.00;;
14294;SDS011;7231;59.370;18.016;2022-12-07T03:22:31;4.67;;;1.90;;
14294;SDS011;7231;59.370;18.016;2022-12-07T03:25:02;5.13;;;2.23;;
14294;SDS011;7231;59.370;18.016;2022-12-07T03:27:35;7.37;;;2.07;;
14294;SDS011;7231;59.370;18.016;2022-12-07T03:30:09;3.63;;;2.03;;
14294;SDS011;7231;59.370;18.016;2022-12-07T03:32:41;6.77;;;1.90;;
14294;SDS011;7231;59.370;18.016;2022-12-07T03:35:14;6.50;;;2.63;;
14294;SDS011;7231;59.370;18.016;2022-12-07T03:37:48;4.77;;;2.43;;
14294;SDS011;7231;59.370;18.016;2022-12-07T03:40:21;3.77;;;2.23;;
14294;SDS011;7231;59.370;18.016;2022-12-07T03:42:53;6.67;;;2.30;;
14294;SDS011;7231;59.370;18.016;2022-12-07T03:45:23;6.00;;;2.53;;
14294;SDS011;7231;59.370;18.016;2022-12-07T03:48:02;5.73;;;2.40;;
14294;SDS011;7231;59.370;18.016;2022-12-07T03:50:38;6.03;;;2.40;;
14294;SDS011;7231;59.370;18.016;2022-12-07T03:53:13;8.17;;;2.30;;
14294;SDS011;7231;59.370;18.016;2022-12-07T03:55:45;4.93;;;2.03;;
14294;SDS011;7231;59.370;18.016;2022-12-07T03:58:16;5.90;;;2.33;;
14294;SDS011;7231;59.370;18.016;2022-12-07T04:00:46;5.00;;;2.60;;
14294;SDS011;7231;59.370;18.016;2022-12-07T04:03:17;4.10;;;1.83;;
14294;SDS011;7231;59.370;18.016;2022-12-07T04:05:45;5.73;;;2.23;;
14294;SDS011;7231;59.370;18.016;2022-12-07T04:08:13;6.10;;;2.10;;
14294;SDS011;7231;59.370;18.016;2022-12-07T04:10:41;6.77;;;2.27;;
14294;SDS011;7231;59.370;18.016;2022-12-07T04:13:09;5.03;;;2.17;;
14294;SDS011;7231;59.370;18.016;2022-12-07T04:15:37;4.10;;;2.00;;
14294;SDS011;7231;59.370;18.016;2022-12-07T04:18:05;6.23;;;1.93;;
14294;SDS011;7231;59.370;18.016;2022-12-07T04:20:34;5.40;;;2.17;;
14294;SDS011;7231;59.370;18.016;2022-12-07T04:23:02;7.20;;;2.30;;
14294;SDS011;7231;59.370;18.016;2022-12-07T04:25:30;4.67;;;1.90;;
14294;SDS011;7231;59.370;18.016;2022-12-07T04:27:58;4.50;;;2.50;;
14294;SDS011;7231;59.370;18.016;2022-12-07T04:30:26;6.03;;;2.37;;
14294;SDS011;7231;59.370;18.016;2022-12-07T04:32:53;5.37;;;2.13;;
14294;SDS011;7231;59.370;18.016;2022-12-07T04:35:21;5.33;;;1.97;;
14294;SDS011;7231;59.370;18.016;2022-12-07T04:37:51;4.27;;;2.20;;
14294;SDS011;7231;59.370;18.016;2022-12-07T04:40:18;6.00;;;1.80;;
14294;SDS011;7231;59.370;18.016;2022-12-07T04:42:46;4.07;;;1.83;;
14294;SDS011;7231;59.370;18.016;2022-12-07T04:45:14;5.27;;;2.20;;
14294;SDS011;7231;59.370;18.016;2022-12-07T04:47:42;5.63;;;1.93;;
14294;SDS011;7231;59.370;18.016;2022-12-07T04:50:10;5.57;;;1.77;;
14294;SDS011;7231;59.370;18.016;2022-12-07T04:52:38;5.57;;;1.97;;
14294;SDS011;7231;59.370;18.016;2022-12-07T04:55:07;6.60;;;1.80;;
14294;SDS011;7231;59.370;18.016;2022-12-07T04:57:35;6.60;;;1.90;;
14294;SDS011;7231;59.370;18.016;2022-12-07T05:00:04;4.10;;;1.87;;
14294;SDS011;7231;59.370;18.016;2022-12-07T05:02:33;6.20;;;2.30;;
14294;SDS011;7231;59.370;18.016;2022-12-07T05:05:01;6.03;;;1.97;;
14294;SDS011;7231;59.370;18.016;2022-12-07T05:07:29;4.20;;;2.03;;
14294;SDS011;7231;59.370;18.016;2022-12-07T05:09:57;4.07;;;1.57;;
14294;SDS011;7231;59.370;18.016;2022-12-07T05:12:27;5.80;;;1.80;;
14294;SDS011;7231;59.370;18.016;2022-12-07T05:14:55;7.90;;;2.03;;
14294;SDS011;7231;59.370;18.016;2022-12-07T05:17:22;6.17;;;2.00;;
14294;SDS011;7231;59.370;18.016;2022-12-07T05:19:50;5.57;;;2.00;;
14294;SDS011;7231;59.370;18.016;2022-12-07T05:22:18;3.67;;;1.90;;
14294;SDS011;7231;59.370;18.016;2022-12-07T05:24:46;3.90;;;1.70;;
14294;SDS011;7231;59.370;18.016;2022-12-07T05:27:14;5.80;;;1.93;;
14294;SDS011;7231;59.370;18.016;2022-12-07T05:29:43;5.87;;;1.53;;
14294;SDS011;7231;59.370;18.016;2022-12-07T05:32:11;6.17;;;2.03;;
14294;SDS011;7231;59.370;18.016;2022-12-07T05:34:39;3.90;;;1.70;;
14294;SDS011;7231;59.370;18.016;2022-12-07T05:37:07;5.00;;;2.40;;
14294;SDS011;7231;59.370;18.016;2022-12-07T05:39:35;5.73;;;2.13;;
14294;SDS011;7231;59.370;18.016;2022-12-07T05:42:04;3.90;;;1.80;;
14294;SDS011;7231;59.370;18.016;2022-12-07T05:44:41;7.13;;;2.20;;
14294;SDS011;7231;59.370;18.016;2022-12-07T05:47:12;2.87;;;1.80;;
14294;SDS011;7231;59.370;18.016;2022-12-07T05:49:41;4.67;;;1.67;;
14294;SDS011;7231;59.370;18.016;2022-12-07T05:52:09;6.90;;;1.73;;
14294;SDS011;7231;59.370;18.016;2022-12-07T05:54:37;6.93;;;1.73;;
14294;SDS011;7231;59.370;18.016;2022-12-07T05:57:05;5.33;;;2.17;;
14294;SDS011;7231;59.370;18.016;2022-12-07T05:59:33;4.63;;;1.70;;
14294;SDS011;7231;59.370;18.016;2022-12-07T06:02:02;5.23;;;1.70;;
14294;SDS011;7231;59.370;18.016;2022-12-07T06:04:32;4.50;;;1.73;;
14294;SDS011;7231;59.370;18.016;2022-12-07T06:07:01;4.17;;;1.70;;
14294;SDS011;7231;59.370;18.016;2022-12-07T06:09:29;6.57;;;2.10;;
14294;SDS011;7231;59.370;18.016;2022-12-07T06:11:57;4.00;;;1.97;;
14294;SDS011;7231;59.370;18.016;2022-12-07T06:14:43;4.43;;;1.90;;
14294;SDS011;7231;59.370;18.016;2022-12-07T06:17:13;7.87;;;2.10;;
14294;SDS011;7231;59.370;18.016;2022-12-07T06:19:41;5.83;;;1.90;;
14294;SDS011;7231;59.370;18.016;2022-12-07T06:22:10;2.83;;;1.57;;
14294;SDS011;7231;59.370;18.016;2022-12-07T06:24:38;6.73;;;1.90;;
14294;SDS011;7231;59.370;18.016;2022-12-07T06:27:07;5.30;;;2.00;;
14294;SDS011;7231;59.370;18.016;2022-12-07T06:29:35;5.60;;;1.97;;
14294;SDS011;7231;59.370;18.016;2022-12-07T06:32:04;9.17;;;2.07;;
14294;SDS011;7231;59.370;18.016;2022-12-07T06:34:33;3.20;;;1.60;;
14294;SDS011;7231;59.370;18.016;2022-12-07T06:37:01;4.43;;;1.93;;
14294;SDS011;7231;59.370;18.016;2022-12-07T06:39:30;5.90;;;2.20;;
14294;SDS011;7231;59.370;18.016;2022-12-07T06:41:58;4.10;;;2.13;;
14294;SDS011;7231;59.370;18.016;2022-12-07T06:44:26;6.13;;;1.97;;
14294;SDS011;7231;59.370;18.016;2022-12-07T06:46:54;5.93;;;1.70;;
14294;SDS011;7231;59.370;18.016;2022-12-07T06:49:44;4.87;;;1.73;;
14294;SDS011;7231;59.370;18.016;2022-12-07T06:52:12;6.93;;;2.27;;
14294;SDS011;7231;59.370;18.016;2022-12-07T06:54:39;6.33;;;1.43;;
14294;SDS011;7231;59.370;18.016;2022-12-07T06:57:07;3.60;;;1.97;;
14294;SDS011;7231;59.370;18.016;2022-12-07T06:59:35;3.97;;;1.90;;
14294;SDS011;7231;59.370;18.016;2022-12-07T07:02:03;6.37;;;1.80;;
14294;SDS011;7231;59.370;18.016;2022-12-07T07:04:32;6.97;;;2.27;;
14294;SDS011;7231;59.370;18.016;2022-12-07T07:07:01;6.53;;;2.43;;
14294;SDS011;7231;59.370;18.016;2022-12-07T07:09:29;5.47;;;2.50;;
14294;SDS011;7231;59.370;18.016;2022-12-07T07:11:57;4.43;;;2.10;;
14294;SDS011;7231;59.370;18.016;2022-12-07T07:14:25;6.63;;;2.03;;
14294;SDS011;7231;59.370;18.016;2022-12-07T07:16:53;4.87;;;1.93;;
14294;SDS011;7231;59.370;18.016;2022-12-07T07:19:21;5.27;;;1.90;;
14294;SDS011;7231;59.370;18.016;2022-12-07T07:21:49;6.10;;;1.60;;
14294;SDS011;7231;59.370;18.016;2022-12-07T07:24:18;6.57;;;1.80;;
14294;SDS011;7231;59.370;18.016;2022-12-07T07:26:46;11.13;;;1.60;;
14294;SDS011;7231;59.370;18.016;2022-12-07T07:29:14;5.87;;;1.97;;
14294;SDS011;7231;59.370;18.016;2022-12-07T07:31:42;5.97;;;1.97;;
14294;SDS011;7231;59.370;18.016;2022-12-07T07:34:10;3.47;;;1.73;;
14294;SDS011;7231;59.370;18.016;2022-12-07T07:36:38;9.33;;;2.00;;
14294;SDS011;7231;59.370;18.016;2022-12-07T07:39:06;4.07;;;1.70;;
14294;SDS011;7231;59.370;18.016;2022-12-07T07:41:36;2.83;;;1.70;;
14294;SDS011;7231;59.370;18.016;2022-12-07T07:44:04;6.83;;;1.70;;
14294;SDS011;7231;59.370;18.016;2022-12-07T07:46:32;4.47;;;1.77;;
14294;SDS011;7231;59.370;18.016;2022-12-07T07:49:00;2.77;;;1.73;;
14294;SDS011;7231;59.370;18.016;2022-12-07T07:51:28;3.93;;;1.83;;
14294;SDS011;7231;59.370;18.016;2022-12-07T07:53:56;8.50;;;1.60;;
14294;SDS011;7231;59.370;18.016;2022-12-07T07:56:24;4.73;;;1.87;;
14294;SDS011;7231;59.370;18.016;2022-12-07T07:58:53;8.87;;;2.23;;
14294;SDS011;7231;59.370;18.016;2022-12-07T08:01:21;8.50;;;2.20;;
14294;SDS011;7231;59.370;18.016;2022-12-07T08:03:49;7.17;;;2.00;;
14294;SDS011;7231;59.370;18.016;2022-12-07T08:06:17;5.30;;;1.87;;
14294;SDS011;7231;59.370;18.016;2022-12-07T08:08:45;4.70;;;1.87;;
14294;SDS011;7231;59.370;18.016;2022-12-07T08:11:13;7.73;;;1.90;;
14294;SDS011;7231;59.370;18.016;2022-12-07T08:13:41;6.73;;;2.07;;
14294;SDS011;7231;59.370;18.016;2022-12-07T08:16:10;5.87;;;2.00;;
14294;SDS011;7231;59.370;18.016;2022-12-07T08:18:39;6.13;;;1.60;;
14294;SDS011;7231;59.370;18.016;2022-12-07T08:21:09;3.63;;;1.93;;
14294;SDS011;7231;59.370;18.016;2022-12-07T08:23:39;3.73;;;2.00;;
14294;SDS011;7231;59.370;18.016;2022-12-07T08:26:08;4.50;;;1.83;;
14294;SDS011;7231;59.370;18.016;2022-12-07T08:28:38;8.23;;;1.90;;
14294;SDS011;7231;59.370;18.016;2022-12-07T08:31:07;3.77;;;1.73;;
14294;SDS011;7231;59.370;18.016;2022-12-07T08:33:39;7.00;;;2.00;;
14294;SDS011;7231;59.370;18.016;2022-12-07T08:36:09;10.53;;;2.40;;
14294;SDS011;7231;59.370;18.016;2022-12-07T08:38:39;7.53;;;2.07;;
14294;SDS011;7231;59.370;18.016;2022-12-07T08:41:28;6.67;;;2.10;;
14294;SDS011;7231;59.370;18.016;2022-12-07T08:43:57;4.10;;;2.03;;
14294;SDS011;7231;59.370;18.016;2022-12-07T08:46:25;6.63;;;1.83;;
14294;SDS011;7231;59.370;18.016;2022-12-07T08:49:03;5.67;;;1.80;;
14294;SDS011;7231;59.370;18.016;2022-12-07T08:51:33;5.13;;;2.03;;
14294;SDS011;7231;59.370;18.016;2022-12-07T08:54:02;4.57;;;3.80;;
14294;SDS011;7231;59.370;18.016;2022-12-07T08:56:34;4.43;;;2.47;;
14294;SDS011;7231;59.370;18.016;2022-12-07T08:59:02;5.90;;;1.97;;
14294;SDS011;7231;59.370;18.016;2022-12-07T09:01:31;4.23;;;2.17;;
14294;SDS011;7231;59.370;18.016;2022-12-07T09:04:00;7.10;;;2.47;;
14294;SDS011;7231;59.370;18.016;2022-12-07T09:06:29;3.33;;;1.70;;
14294;SDS011;7231;59.370;18.016;2022-12-07T09:08:58;3.60;;;1.77;;
14294;SDS011;7231;59.370;18.016;2022-12-07T09:11:28;10.47;;;2.23;;
14294;SDS011;7231;59.370;18.016;2022-12-07T09:13:56;7.60;;;1.70;;
14294;SDS011;7231;59.370;18.016;2022-12-07T09:16:24;3.43;;;1.53;;
14294;SDS011;7231;59.370;18.016;2022-12-07T09:18:52;6.27;;;1.57;;
14294;SDS011;7231;59.370;18.016;2022-12-07T09:21:20;5.60;;;1.30;;
14294;SDS011;7231;59.370;18.016;2022-12-07T09:23:49;5.97;;;1.97;;
14294;SDS011;7231;59.370;18.016;2022-12-07T09:26:17;4.83;;;1.60;;
14294;SDS011;7231;59.370;18.016;2022-12-07T09:28:45;3.47;;;1.50;;
14294;SDS011;7231;59.370;18.016;2022-12-07T09:31:14;4.00;;;1.90;;
14294;SDS011;7231;59.370;18.016;2022-12-07T09:33:54;6.67;;;1.77;;
14294;SDS011;7231;59.370;18.016;2022-12-07T09:36:23;5.97;;;2.00;;
14294;SDS011;7231;59.370;18.016;2022-12-07T09:38:52;4.57;;;1.57;;
14294;SDS011;7231;59.370;18.016;2022-12-07T09:41:21;5.73;;;1.97;;
14294;SDS011;7231;59.370;18.016;2022-12-07T09:43:50;4.97;;;1.40;;
14294;SDS011;7231;59.370;18.016;2022-12-07T09:46:19;4.57;;;1.40;;
14294;SDS011;7231;59.370;18.016;2022-12-07T09:48:48;4.47;;;1.43;;
14294;SDS011;7231;59.370;18.016;2022-12-07T09:51:18;5.07;;;1.30;;
14294;SDS011;7231;59.370;18.016;2022-12-07T09:53:50;5.90;;;1.37;;
14294;SDS011;7231;59.370;18.016;2022-12-07T09:56:21;5.53;;;1.70;;
14294;SDS011;7231;59.370;18.016;2022-12-07T09:58:58;2.87;;;1.23;;
14294;SDS011;7231;59.370;18.016;2022-12-07T10:01:28;3.77;;;1.43;;
14294;SDS011;7231;59.370;18.016;2022-12-07T10:04:00;2.50;;;1.20;;
14294;SDS011;7231;59.370;18.016;2022-12-07T10:06:36;4.07;;;0.80;;
14294;SDS011;7231;59.370;18.016;2022-12-07T10:09:10;4.60;;;1.30;;
14294;SDS011;7231;59.370;18.016;2022-12-07T10:14:30;5.57;;;1.27;;
14294;SDS011;7231;59.370;18.016;2022-12-07T10:17:27;4.23;;;1.13;;
14294;SDS011;7231;59.370;18.016;2022-12-07T10:20:14;8.40;;;1.40;;
14294;SDS011;7231;59.370;18.016;2022-12-07T10:22:58;6.53;;;1.87;;
14294;SDS011;7231;59.370;18.016;2022-12-07T10:25:30;5.03;;;1.33;;
14294;SDS011;7231;59.370;18.016;2022-12-07T10:28:01;5.10;;;1.10;;
14294;SDS011;7231;59.370;18.016;2022-12-07T10:30:52;3.73;;;1.53;;
14294;SDS011;7231;59.370;18.016;2022-12-07T10:33:30;4.80;;;1.23;;
14294;SDS011;7231;59.370;18.016;2022-12-07T10:36:00;7.27;;;1.60;;
14294;SDS011;7231;59.370;18.016;2022-12-07T10:38:44;2.63;;;1.00;;
14294;SDS011;7231;59.370;18.016;2022-12-07T10:41:15;3.87;;;1.40;;
14294;SDS011;7231;59.370;18.016;2022-12-07T10:43:46;9.43;;;1.70;;
14294;SDS011;7231;59.370;18.016;2022-12-07T10:49:33;4.63;;;1.67;;
14294;SDS011;7231;59.370;18.016;2022-12-07T10:52:22;5.97;;;1.43;;
14294;SDS011;7231;59.370;18.016;2022-12-07T10:55:06;4.17;;;1.60;;
14294;SDS011;7231;59.370;18.016;2022-12-07T10:57:47;8.80;;;1.90;;
14294;SDS011;7231;59.370;18.016;2022-12-07T11:00:28;7.30;;;2.17;;
14294;SDS011;7231;59.370;18.016;2022-12-07T11:03:23;5.03;;;2.00;;
14294;SDS011;7231;59.370;18.016;2022-12-07T11:06:01;4.33;;;1.90;;
14294;SDS011;7231;59.370;18.016;2022-12-07T11:08:47;5.23;;;1.57;;
14294;SDS011;7231;59.370;18.016;2022-12-07T11:11:30;5.23;;;1.60;;
14294;SDS011;7231;59.370;18.016;2022-12-07T11:14:05;4.73;;;1.67;;
14294;SDS011;7231;59.370;18.016;2022-12-07T11:16:50;8.67;;;1.80;;
14294;SDS011;7231;59.370;18.016;2022-12-07T11:19:32;5.70;;;1.67;;
14294;SDS011;7231;59.370;18.016;2022-12-07T11:22:18;2.80;;;1.50;;
14294;SDS011;7231;59.370;18.016;2022-12-07T11:24:56;8.40;;;2.00;;
14294;SDS011;7231;59.370;18.016;2022-12-07T11:27:32;5.40;;;1.93;;
14294;SDS011;7231;59.370;18.016;2022-12-07T11:30:10;9.63;;;2.23;;
14294;SDS011;7231;59.370;18.016;2022-12-07T11:32:47;8.33;;;2.50;;
14294;SDS011;7231;59.370;18.016;2022-12-07T11:35:30;5.33;;;2.37;;
14294;SDS011;7231;59.370;18.016;2022-12-07T11:38:08;9.20;;;4.03;;
14294;SDS011;7231;59.370;18.016;2022-12-07T11:40:42;8.77;;;2.70;;
14294;SDS011;7231;59.370;18.016;2022-12-07T11:43:14;8.07;;;2.17;;
14294;SDS011;7231;59.370;18.016;2022-12-07T11:45:52;7.73;;;2.27;;
14294;SDS011;7231;59.370;18.016;2022-12-07T11:48:29;6.53;;;1.97;;
14294;SDS011;7231;59.370;18.016;2022-12-07T11:51:02;5.17;;;2.20;;
14294;SDS011;7231;59.370;18.016;2022-12-07T11:53:32;3.07;;;1.70;;
14294;SDS011;7231;59.370;18.016;2022-12-07T11:56:07;5.47;;;1.40;;
14294;SDS011;7231;59.370;18.016;2022-12-07T11:58:44;5.23;;;1.93;;
14294;SDS011;7231;59.370;18.016;2022-12-07T12:01:26;3.83;;;1.87;;
14294;SDS011;7231;59.370;18.016;2022-12-07T12:04:05;4.33;;;2.00;;
14294;SDS011;7231;59.370;18.016;2022-12-07T12:06:44;8.87;;;1.83;;
14294;SDS011;7231;59.370;18.016;2022-12-07T12:09:13;3.67;;;1.80;;
14294;SDS011;7231;59.370;18.016;2022-12-07T12:12:07;6.17;;;2.13;;
14294;SDS011;7231;59.370;18.016;2022-12-07T12:15:14;6.73;;;1.70;;
14294;SDS011;7231;59.370;18.016;2022-12-07T12:17:56;5.10;;;1.60;;
14294;SDS011;7231;59.370;18.016;2022-12-07T12:20:40;4.77;;;1.57;;
14294;SDS011;7231;59.370;18.016;2022-12-07T12:23:11;3.17;;;1.37;;
14294;SDS011;7231;59.370;18.016;2022-12-07T12:25:44;7.60;;;1.80;;
14294;SDS011;7231;59.370;18.016;2022-12-07T12:28:19;4.10;;;1.67;;
14294;SDS011;7231;59.370;18.016;2022-12-07T12:31:10;6.43;;;1.70;;
14294;SDS011;7231;59.370;18.016;2022-12-07T12:33:46;9.30;;;1.60;;
14294;SDS011;7231;59.370;18.016;2022-12-07T12:36:20;5.13;;;1.90;;
14294;SDS011;7231;59.370;18.016;2022-12-07T12:38:51;3.73;;;1.27;;
14294;SDS011;7231;59.370;18.016;2022-12-07T12:50:28;3.40;;;1.47;;
14294;SDS011;7231;59.370;18.016;2022-12-07T12:53:02;4.60;;;1.67;;
14294;SDS011;7231;59.370;18.016;2022-12-07T12:58:42;5.47;;;1.80;;
14294;SDS011;7231;59.370;18.016;2022-12-07T13:07:03;4.50;;;1.40;;
14294;SDS011;7231;59.370;18.016;2022-12-07T13:09:31;3.83;;;1.50;;
14294;SDS011;7231;59.370;18.016;2022-12-07T13:12:03;3.67;;;1.17;;
14294;SDS011;7231;59.370;18.016;2022-12-07T13:14:40;3.10;;;1.20;;
14294;SDS011;7231;59.370;18.016;2022-12-07T13:17:10;7.90;;;1.70;;
14294;SDS011;7231;59.370;18.016;2022-12-07T13:25:30;4.47;;;1.77;;
14294;SDS011;7231;59.370;18.016;2022-12-07T13:28:09;3.53;;;1.60;;
14294;SDS011;7231;59.370;18.016;2022-12-07T13:30:50;5.17;;;1.60;;
14294;SDS011;7231;59.370;18.016;2022-12-07T13:33:29;5.13;;;1.83;;
14294;SDS011;7231;59.370;18.016;2022-12-07T13:35:58;7.10;;;1.43;;
14294;SDS011;7231;59.370;18.016;2022-12-07T13:38:30;3.93;;;1.47;;
14294;SDS011;7231;59.370;18.016;2022-12-07T13:41:01;4.63;;;1.50;;
14294;SDS011;7231;59.370;18.016;2022-12-07T13:43:43;6.10;;;1.27;;
14294;SDS011;7231;59.370;18.016;2022-12-07T13:46:17;3.63;;;1.53;;
14294;SDS011;7231;59.370;18.016;2022-12-07T13:48:47;4.97;;;2.03;;
14294;SDS011;7231;59.370;18.016;2022-12-07T13:51:18;3.03;;;1.23;;
14294;SDS011;7231;59.370;18.016;2022-12-07T13:53:50;3.43;;;1.50;;
14294;SDS011;7231;59.370;18.016;2022-12-07T13:56:25;5.07;;;1.37;;
14294;SDS011;7231;59.370;18.016;2022-12-07T13:58:58;4.57;;;2.13;;
14294;SDS011;7231;59.370;18.016;2022-12-07T14:01:28;3.57;;;1.33;;
14294;SDS011;7231;59.370;18.016;2022-12-07T14:06:48;5.50;;;1.03;;
14294;SDS011;7231;59.370;18.016;2022-12-07T14:09:20;2.73;;;1.30;;
14294;SDS011;7231;59.370;18.016;2022-12-07T14:11:50;5.37;;;1.10;;
14294;SDS011;7231;59.370;18.016;2022-12-07T14:14:20;5.90;;;1.30;;
14294;SDS011;7231;59.370;18.016;2022-12-07T14:16:56;3.63;;;1.20;;
14294;SDS011;7231;59.370;18.016;2022-12-07T14:19:40;4.33;;;1.30;;
14294;SDS011;7231;59.370;18.016;2022-12-07T14:27:48;2.97;;;1.40;;
14294;SDS011;7231;59.370;18.016;2022-12-07T14:30:19;4.33;;;1.50;;
14294;SDS011;7231;59.370;18.016;2022-12-07T14:32:48;3.03;;;1.37;;
14294;SDS011;7231;59.370;18.016;2022-12-07T14:35:19;2.63;;;1.33;;
14294;SDS011;7231;59.370;18.016;2022-12-07T14:37:47;6.50;;;1.33;;
14294;SDS011;7231;59.370;18.016;2022-12-07T14:40:17;4.80;;;1.30;;
14294;SDS011;7231;59.370;18.016;2022-12-07T14:42:49;7.70;;;1.27;;
14294;SDS011;7231;59.370;18.016;2022-12-07T14:45:21;5.73;;;1.60;;
14294;SDS011;7231;59.370;18.016;2022-12-07T14:47:50;6.17;;;1.57;;
14294;SDS011;7231;59.370;18.016;2022-12-07T14:50:39;4.83;;;1.37;;
14294;SDS011;7231;59.370;18.016;2022-12-07T14:53:31;7.73;;;1.40;;
14294;SDS011;7231;59.370;18.016;2022-12-07T14:56:04;7.00;;;1.50;;
14294;SDS011;7231;59.370;18.016;2022-12-07T14:58:36;2.70;;;1.50;;
14294;SDS011;7231;59.370;18.016;2022-12-07T15:01:05;6.30;;;2.07;;
14294;SDS011;7231;59.370;18.016;2022-12-07T15:03:35;8.97;;;2.70;;
14294;SDS011;7231;59.370;18.016;2022-12-07T15:06:05;7.07;;;2.50;;
14294;SDS011;7231;59.370;18.016;2022-12-07T15:08:34;4.67;;;2.27;;
14294;SDS011;7231;59.370;18.016;2022-12-07T15:11:06;6.43;;;2.10;;
14294;SDS011;7231;59.370;18.016;2022-12-07T15:13:34;11.30;;;2.23;;
14294;SDS011;7231;59.370;18.016;2022-12-07T15:16:19;5.63;;;2.03;;
14294;SDS011;7231;59.370;18.016;2022-12-07T15:18:48;6.87;;;1.87;;
14294;SDS011;7231;59.370;18.016;2022-12-07T15:21:36;4.00;;;1.80;;
14294;SDS011;7231;59.370;18.016;2022-12-07T15:24:04;5.27;;;2.33;;
14294;SDS011;7231;59.370;18.016;2022-12-07T15:26:34;4.70;;;1.67;;
14294;SDS011;7231;59.370;18.016;2022-12-07T15:29:02;3.87;;;1.50;;
14294;SDS011;7231;59.370;18.016;2022-12-07T15:31:30;4.07;;;1.60;;
14294;SDS011;7231;59.370;18.016;2022-12-07T15:34:18;5.30;;;1.93;;
14294;SDS011;7231;59.370;18.016;2022-12-07T15:36:46;3.87;;;1.60;;
14294;SDS011;7231;59.370;18.016;2022-12-07T15:39:14;5.53;;;1.50;;
14294;SDS011;7231;59.370;18.016;2022-12-07T15:41:43;4.77;;;1.53;;
14294;SDS011;7231;59.370;18.016;2022-12-07T15:44:11;2.33;;;1.37;;
14294;SDS011;7231;59.370;18.016;2022-12-07T15:46:56;6.40;;;2.10;;
14294;SDS011;7231;59.370;18.016;2022-12-07T15:49:24;3.83;;;1.60;;
14294;SDS011;7231;59.370;18.016;2022-12-07T15:51:52;9.70;;;1.63;;
14294;SDS011;7231;59.370;18.016;2022-12-07T15:54:23;3.90;;;1.67;;
14294;SDS011;7231;59.370;18.016;2022-12-07T15:56:54;8.33;;;1.60;;
14294;SDS011;7231;59.370;18.016;2022-12-07T15:59:22;4.60;;;1.73;;